Time;durP1;ratioP1;P1;durP2;ratioP2;P2;SDS_P1;SDS_P2;PMS_P1;PMS_P2;Temp;Humidity;BMP_temperature;BMP_pressure;BME280_temperature;BME280_humidity;BME280_pressure;Samples;Min_cycle;Max_cycle;Signal;HPM_P1;HPM_P2
2023/08/18 00:00:47;;;;;;;;;;;17.40;99.90;;;;;;5136230;27;19919;-41
2023/08/18 00:03:13;;;;;;;;;;;17.40;99.90;;;;;;5123788;27;20404;-43
2023/08/18 00:05:39;;;;;;;;;;;17.40;99.90;;;;;;5121234;27;19912;-41
2023/08/18 00:08:04;;;;;;;;;;;17.40;99.90;;;;;;5136136;27;19915;-42
2023/08/18 00:10:29;;;;;;;;;;;17.40;99.90;;;;;;5135959;27;19908;-41
2023/08/18 00:12:55;;;;;;;;;;;17.40;99.90;;;;;;5136019;27;19908;-42
2023/08/18 00:15:20;;;;;;;;;;;17.30;99.90;;;;;;5135679;27;20001;-44
2023/08/18 00:17:46;;;;;;;;;;;17.40;99.90;;;;;;5135847;27;19911;-42
2023/08/18 00:20:12;;;;;;;;;;;17.30;99.90;;;;;;5135853;27;19912;-43
2023/08/18 00:22:37;;;;;;;;;;;17.30;99.90;;;;;;5135880;27;20390;-43
2023/08/18 00:25:03;;;;;;;;;;;17.30;99.90;;;;;;5135688;27;19976;-43
2023/08/18 00:27:28;;;;;;;;;;;17.30;99.90;;;;;;5135631;27;19999;-45
2023/08/18 00:29:54;;;;;;;;;;;17.30;99.90;;;;;;5135710;27;20002;-41
2023/08/18 00:32:19;;;;;;;;;;;17.30;99.90;;;;;;5139808;27;19906;-42
2023/08/18 00:34:45;;;;;;;;;;;17.30;99.90;;;;;;5156179;27;19911;-43
2023/08/18 00:37:13;;;;;;;;;;;17.30;99.90;;;;;;5156269;27;20257;-41
2023/08/18 00:39:38;;;;;;;;;;;17.30;99.90;;;;;;5156023;27;20376;-41
2023/08/18 00:42:04;;;;;;;;;;;17.20;99.90;;;;;;5154412;27;19907;-43
2023/08/18 00:44:29;;;;;;;;;;;17.30;99.90;;;;;;5125257;27;19927;-44
2023/08/18 00:46:55;;;;;;;;;;;17.20;99.90;;;;;;5114537;28;19912;-42
2023/08/18 00:49:21;;;;;;;;;;;17.20;99.90;;;;;;5114494;28;19908;-44
2023/08/18 00:51:46;;;;;;;;;;;17.20;99.90;;;;;;5114805;27;19912;-41
2023/08/18 00:54:12;;;;;;;;;;;17.20;99.90;;;;;;5114739;28;19912;-43
2023/08/18 00:56:38;;;;;;;;;;;17.30;99.90;;;;;;5114421;28;20354;-42
2023/08/18 00:59:05;;;;;;;;;;;17.20;99.90;;;;;;5118144;27;19911;-43
2023/08/18 01:01:32;;;;;;;;;;;17.20;99.90;;;;;;5121801;27;19912;-43
2023/08/18 01:03:58;;;;;;;;;;;17.30;99.90;;;;;;5134957;27;19922;-43
2023/08/18 01:06:23;;;;;;;;;;;17.20;99.90;;;;;;5134880;27;19912;-43
2023/08/18 01:08:50;;;;;;;;;;;17.20;99.90;;;;;;5133076;27;20328;-41
2023/08/18 01:11:17;;;;;;;;;;;17.20;99.90;;;;;;5114433;28;20006;-43
2023/08/18 01:14:01;;;;;;;;;;;17.30;99.90;;;;;;5114106;28;20362;-47
2023/08/18 01:16:27;;;;;;;;;;;17.20;99.90;;;;;;5113729;28;19916;-41
2023/08/18 01:18:53;;;;;;;;;;;17.20;99.90;;;;;;5115238;27;19907;-42
2023/08/18 01:21:20;;;;;;;;;;;17.20;99.90;;;;;;5093768;28;20003;-41
2023/08/18 01:23:46;;;;;;;;;;;17.20;99.90;;;;;;5093655;28;20330;-43
2023/08/18 01:26:11;;;;;;;;;;;17.20;99.90;;;;;;5093657;28;19953;-43
2023/08/18 01:28:37;;;;;;;;;;;17.20;99.90;;;;;;5114462;27;19907;-44
2023/08/18 01:31:05;;;;;;;;;;;17.20;99.90;;;;;;5134481;27;19922;-43
2023/08/18 01:33:34;;;;;;;;;;;17.20;99.90;;;;;;5134378;27;19912;-42
2023/08/18 01:36:03;;;;;;;;;;;17.20;99.90;;;;;;5134332;27;19938;-42
2023/08/18 01:38:30;;;;;;;;;;;17.20;99.90;;;;;;5131923;27;19990;-41
2023/08/18 01:40:56;;;;;;;;;;;17.20;99.90;;;;;;5113755;28;19918;-43
2023/08/18 01:43:22;;;;;;;;;;;17.20;99.90;;;;;;5113549;28;19907;-41
2023/08/18 01:45:47;;;;;;;;;;;17.20;99.90;;;;;;5126752;27;20030;-42
2023/08/18 01:48:13;;;;;;;;;;;17.20;99.90;;;;;;5134185;27;19970;-43
2023/08/18 01:50:38;;;;;;;;;;;17.20;99.90;;;;;;5113572;27;19912;-44
2023/08/18 01:53:04;;;;;;;;;;;17.20;99.90;;;;;;5113659;28;19919;-41
2023/08/18 01:55:29;;;;;;;;;;;17.20;99.90;;;;;;5113340;28;20290;-41
2023/08/18 01:57:55;;;;;;;;;;;17.20;99.90;;;;;;5113405;28;19907;-43
2023/08/18 02:00:20;;;;;;;;;;;17.20;99.90;;;;;;5130324;27;19960;-41
2023/08/18 02:02:46;;;;;;;;;;;17.20;99.90;;;;;;5133968;27;20381;-42
2023/08/18 02:05:11;;;;;;;;;;;17.20;99.90;;;;;;5134012;27;19907;-42
2023/08/18 02:07:37;;;;;;;;;;;17.20;99.90;;;;;;5133790;27;20011;-41
2023/08/18 02:10:02;;;;;;;;;;;17.20;99.90;;;;;;5118964;27;19982;-43
2023/08/18 02:12:28;;;;;;;;;;;17.20;99.90;;;;;;5113243;28;20340;-43
2023/08/18 02:14:53;;;;;;;;;;;17.10;99.90;;;;;;5113322;28;19912;-42
2023/08/18 02:17:19;;;;;;;;;;;17.10;99.90;;;;;;5113109;28;20324;-43
2023/08/18 02:19:44;;;;;;;;;;;17.10;99.90;;;;;;5124727;28;19908;-43
2023/08/18 02:22:09;;;;;;;;;;;17.10;99.90;;;;;;5133810;28;19912;-42
2023/08/18 02:24:35;;;;;;;;;;;17.10;99.90;;;;;;5133675;28;19918;-44
2023/08/18 02:27:00;;;;;;;;;;;17.10;99.90;;;;;;5133723;27;20362;-43
2023/08/18 02:29:26;;;;;;;;;;;17.10;99.90;;;;;;5128128;27;20346;-43
2023/08/18 02:31:52;;;;;;;;;;;17.10;99.90;;;;;;5117499;28;19912;-42
2023/08/18 02:34:18;;;;;;;;;;;17.10;99.90;;;;;;5117341;28;20384;-44
2023/08/18 02:36:43;;;;;;;;;;;17.10;99.90;;;;;;5117483;28;19940;-43
2023/08/18 02:39:09;;;;;;;;;;;17.20;99.90;;;;;;5123487;27;19914;-46
2023/08/18 02:41:34;;;;;;;;;;;17.10;99.90;;;;;;5137306;27;20394;-45
2023/08/18 02:44:00;;;;;;;;;;;17.10;99.90;;;;;;5137407;27;19995;-42
2023/08/18 02:46:25;;;;;;;;;;;17.10;99.90;;;;;;5137660;27;19907;-43
2023/08/18 02:48:51;;;;;;;;;;;17.10;99.90;;;;;;5140903;27;19911;-43
2023/08/18 02:51:16;;;;;;;;;;;17.10;99.90;;;;;;5158587;27;19907;-44
2023/08/18 02:53:43;;;;;;;;;;;17.10;99.90;;;;;;5158267;27;19907;-43
2023/08/18 02:56:08;;;;;;;;;;;17.10;99.90;;;;;;5158061;27;20277;-44
2023/08/18 02:58:35;;;;;;;;;;;17.10;99.90;;;;;;5142367;27;19918;-43
2023/08/18 03:01:02;;;;;;;;;;;17.10;99.90;;;;;;5137477;27;20006;-42
2023/08/18 03:03:27;;;;;;;;;;;17.10;99.90;;;;;;5137211;27;19960;-42
2023/08/18 03:05:53;;;;;;;;;;;17.20;99.90;;;;;;5143055;27;19915;-43
2023/08/18 03:08:18;;;;;;;;;;;17.10;99.90;;;;;;5157979;27;20357;-41
2023/08/18 03:10:52;;;;;;;;;;;17.10;99.90;;;;;;5157886;27;19911;-44
2023/08/18 03:13:18;;;;;;;;;;;17.10;99.90;;;;;;5157833;27;20355;-43
2023/08/18 03:15:44;;;;;;;;;;;17.10;99.90;;;;;;5156087;27;19927;-43
2023/08/18 03:18:09;;;;;;;;;;;17.10;99.90;;;;;;5157688;27;19956;-43
2023/08/18 03:20:35;;;;;;;;;;;17.10;99.90;;;;;;5157685;27;19911;-41
2023/08/18 03:23:00;;;;;;;;;;;17.10;99.90;;;;;;5157703;27;20362;-44
2023/08/18 03:25:26;;;;;;;;;;;17.10;99.90;;;;;;5157020;27;19913;-43
2023/08/18 03:27:51;;;;;;;;;;;17.10;99.90;;;;;;5136864;27;19908;-42
2023/08/18 03:30:17;;;;;;;;;;;17.10;99.90;;;;;;5136793;27;19967;-44
2023/08/18 03:32:43;;;;;;;;;;;17.20;99.90;;;;;;5136883;27;19908;-45
2023/08/18 03:35:08;;;;;;;;;;;17.10;99.90;;;;;;5136729;27;19908;-44
2023/08/18 03:37:34;;;;;;;;;;;17.10;99.90;;;;;;5153751;27;19923;-42
2023/08/18 03:39:59;;;;;;;;;;;17.20;99.90;;;;;;5157234;27;19914;-42
2023/08/18 03:42:24;;;;;;;;;;;17.10;99.90;;;;;;5157328;27;19911;-42
2023/08/18 03:44:50;;;;;;;;;;;17.10;99.90;;;;;;5157149;27;19919;-43
2023/08/18 03:47:15;;;;;;;;;;;17.10;99.90;;;;;;5142682;27;19912;-42
2023/08/18 03:49:41;;;;;;;;;;;17.20;99.90;;;;;;5136419;27;20266;-42
2023/08/18 03:52:08;;;;;;;;;;;17.10;99.90;;;;;;5135695;27;21582;-43
2023/08/18 03:54:34;;;;;;;;;;;17.10;99.90;;;;;;5136300;27;19947;-43
2023/08/18 03:56:59;;;;;;;;;;;17.10;99.90;;;;;;5147521;27;19919;-43
2023/08/18 03:59:24;;;;;;;;;;;17.10;99.90;;;;;;5156977;27;19987;-44
2023/08/18 04:01:50;;;;;;;;;;;17.10;99.90;;;;;;5156902;27;20419;-44
2023/08/18 04:04:15;;;;;;;;;;;17.10;99.90;;;;;;5154196;27;19952;-43
2023/08/18 04:06:41;;;;;;;;;;;17.10;99.90;;;;;;5135999;27;19911;-42
2023/08/18 04:09:09;;;;;;;;;;;17.10;99.90;;;;;;5136109;27;19949;-43
2023/08/18 04:11:34;;;;;;;;;;;17.10;99.90;;;;;;5135974;27;19908;-43
2023/08/18 04:14:00;;;;;;;;;;;17.10;99.90;;;;;;5135866;27;19915;-43
2023/08/18 04:16:26;;;;;;;;;;;17.10;99.90;;;;;;5156506;27;19915;-43
2023/08/18 04:18:51;;;;;;;;;;;17.10;99.90;;;;;;5156830;27;19907;-42
2023/08/18 04:21:16;;;;;;;;;;;17.00;99.90;;;;;;5156557;27;19930;-43
2023/08/18 04:23:42;;;;;;;;;;;17.00;99.90;;;;;;5156495;27;19946;-42
2023/08/18 04:26:07;;;;;;;;;;;17.10;99.90;;;;;;5138848;27;19911;-43
2023/08/18 04:28:33;;;;;;;;;;;17.00;99.90;;;;;;5135673;27;19998;-42
2023/08/18 04:30:59;;;;;;;;;;;17.00;99.90;;;;;;5135697;27;19988;-45
2023/08/18 04:33:24;;;;;;;;;;;17.10;99.90;;;;;;5135527;27;20006;-43
2023/08/18 04:35:50;;;;;;;;;;;17.00;99.90;;;;;;5149000;27;19950;-42
2023/08/18 04:38:16;;;;;;;;;;;17.00;99.90;;;;;;5156101;27;19907;-43
2023/08/18 04:40:42;;;;;;;;;;;17.10;99.90;;;;;;5156100;27;19976;-42
2023/08/18 04:43:07;;;;;;;;;;;17.10;99.90;;;;;;5156233;27;20296;-42
2023/08/18 04:45:34;;;;;;;;;;;17.10;99.90;;;;;;5144621;27;20320;-43
2023/08/18 04:47:59;;;;;;;;;;;17.10;99.90;;;;;;5135362;27;19911;-42
2023/08/18 04:50:25;;;;;;;;;;;17.10;99.90;;;;;;5134802;27;20445;-42
2023/08/18 04:52:50;;;;;;;;;;;17.10;99.90;;;;;;5135110;27;19911;-41
2023/08/18 04:55:16;;;;;;;;;;;17.10;99.90;;;;;;5131513;27;20010;-42
2023/08/18 04:57:41;;;;;;;;;;;17.10;99.90;;;;;;5125345;27;20018;-42
2023/08/18 05:00:08;;;;;;;;;;;17.10;99.90;;;;;;5133645;27;19908;-44
2023/08/18 05:02:33;;;;;;;;;;;17.20;99.90;;;;;;5134941;27;19908;-43
2023/08/18 05:04:59;;;;;;;;;;;17.20;99.90;;;;;;5138339;27;19914;-44
2023/08/18 05:07:24;;;;;;;;;;;17.20;99.90;;;;;;5134777;27;19923;-45
2023/08/18 05:09:50;;;;;;;;;;;17.20;99.90;;;;;;5134733;27;19908;-43
2023/08/18 05:12:15;;;;;;;;;;;17.20;99.90;;;;;;5127089;27;19907;-44
2023/08/18 05:14:41;;;;;;;;;;;17.20;99.90;;;;;;5116548;27;20037;-42
2023/08/18 05:17:06;;;;;;;;;;;17.20;99.90;;;;;;5139968;27;20388;-42
2023/08/18 05:19:32;;;;;;;;;;;17.20;99.90;;;;;;5133834;27;20002;-42
2023/08/18 05:21:57;;;;;;;;;;;17.20;99.90;;;;;;5134626;27;19918;-42
2023/08/18 05:24:23;;;;;;;;;;;17.20;99.90;;;;;;5134388;27;20392;-44
2023/08/18 05:26:48;;;;;;;;;;;17.20;99.90;;;;;;5152907;27;20026;-41
2023/08/18 05:29:14;;;;;;;;;;;17.20;99.90;;;;;;5155193;27;19915;-43
2023/08/18 05:31:39;;;;;;;;;;;17.30;99.90;;;;;;5139022;27;20039;-41
2023/08/18 05:34:05;;;;;;;;;;;17.20;99.90;;;;;;5133306;27;19912;-43
2023/08/18 05:36:31;;;;;;;;;;;17.20;99.90;;;;;;5148558;27;20265;-45
2023/08/18 05:38:57;;;;;;;;;;;17.30;99.90;;;;;;5154810;27;19911;-44
2023/08/18 05:41:23;;;;;;;;;;;17.30;99.90;;;;;;5127081;27;20347;-44
2023/08/18 05:43:48;;;;;;;;;;;17.30;99.90;;;;;;5124545;27;20007;-44
2023/08/18 05:46:15;;;;;;;;;;;17.30;99.90;;;;;;5138847;27;20006;-43
2023/08/18 05:48:40;;;;;;;;;;;17.30;99.90;;;;;;5139893;27;20194;-43
2023/08/18 05:51:06;;;;;;;;;;;17.30;99.90;;;;;;5136180;27;20160;-43
2023/08/18 05:53:31;;;;;;;;;;;17.30;99.90;;;;;;5133983;27;20003;-43
2023/08/18 05:55:57;;;;;;;;;;;17.30;99.90;;;;;;5140479;27;20308;-45
2023/08/18 05:58:23;;;;;;;;;;;17.30;99.90;;;;;;5130397;27;19936;-45
2023/08/18 06:00:49;;;;;;;;;;;17.40;99.90;;;;;;5133935;27;19907;-42
2023/08/18 06:03:15;;;;;;;;;;;17.40;99.90;;;;;;5116341;27;19912;-44
2023/08/18 06:05:40;;;;;;;;;;;17.40;99.90;;;;;;5115896;27;20540;-42
2023/08/18 06:08:06;;;;;;;;;;;17.50;99.90;;;;;;5133688;27;19911;-43
2023/08/18 06:10:31;;;;;;;;;;;17.50;99.90;;;;;;5133758;27;19908;-41
2023/08/18 06:12:57;;;;;;;;;;;17.50;99.90;;;;;;5135033;27;20412;-43
2023/08/18 06:15:23;;;;;;;;;;;17.50;99.90;;;;;;5145103;27;19918;-43
2023/08/18 06:17:49;;;;;;;;;;;17.50;99.90;;;;;;5138110;27;19911;-41
2023/08/18 06:20:14;;;;;;;;;;;17.50;99.90;;;;;;5142426;27;20297;-43
2023/08/18 06:22:40;;;;;;;;;;;17.60;99.90;;;;;;5147512;27;19915;-42
2023/08/18 06:25:06;;;;;;;;;;;17.60;99.90;;;;;;5128692;27;19908;-43
2023/08/18 06:27:32;;;;;;;;;;;17.60;99.90;;;;;;5117533;28;19915;-43
2023/08/18 06:29:57;;;;;;;;;;;17.60;99.90;;;;;;5133754;28;19960;-43
2023/08/18 06:32:23;;;;;;;;;;;17.60;99.90;;;;;;5133637;28;19949;-43
2023/08/18 06:34:51;;;;;;;;;;;17.70;99.90;;;;;;5133205;28;19915;-42
2023/08/18 06:37:20;;;;;;;;;;;17.70;99.90;;;;;;5133189;27;19976;-43
2023/08/18 06:39:45;;;;;;;;;;;17.80;99.90;;;;;;5144475;27;20330;-43
2023/08/18 06:42:11;;;;;;;;;;;17.80;99.90;;;;;;5133143;28;20002;-45
2023/08/18 06:44:37;;;;;;;;;;;17.80;99.90;;;;;;5133239;28;19976;-43
2023/08/18 06:47:03;;;;;;;;;;;17.80;99.90;;;;;;5133678;28;19911;-44
2023/08/18 06:49:28;;;;;;;;;;;17.80;99.90;;;;;;5148104;27;20362;-42
2023/08/18 06:51:54;;;;;;;;;;;17.80;99.90;;;;;;5154161;27;19910;-42
2023/08/18 06:54:19;;;;;;;;;;;17.80;99.90;;;;;;5154108;27;19907;-41
2023/08/18 06:56:45;;;;;;;;;;;17.80;99.90;;;;;;5128787;27;20034;-43
2023/08/18 06:59:12;;;;;;;;;;;17.80;99.90;;;;;;5143905;27;19918;-41
2023/08/18 07:01:38;;;;;;;;;;;17.80;99.90;;;;;;5153254;27;19959;-43
2023/08/18 07:04:04;;;;;;;;;;;17.80;99.90;;;;;;5153913;27;20001;-43
2023/08/18 07:06:30;;;;;;;;;;;17.80;99.90;;;;;;5153881;27;19915;-43
2023/08/18 07:08:56;;;;;;;;;;;17.80;99.90;;;;;;5143378;27;19934;-43
2023/08/18 07:11:21;;;;;;;;;;;17.90;99.90;;;;;;5133297;28;20350;-41
2023/08/18 07:13:47;;;;;;;;;;;17.90;99.90;;;;;;5134137;27;20281;-42
2023/08/18 07:16:12;;;;;;;;;;;18.00;99.90;;;;;;5130767;27;19919;-42
2023/08/18 07:18:38;;;;;;;;;;;18.00;99.90;;;;;;5143813;27;19916;-43
2023/08/18 07:21:03;;;;;;;;;;;18.10;99.90;;;;;;5136630;27;19960;-44
2023/08/18 07:23:29;;;;;;;;;;;18.10;99.90;;;;;;5136670;27;20005;-42
2023/08/18 07:25:55;;;;;;;;;;;18.20;99.90;;;;;;5135862;27;19920;-42
2023/08/18 07:28:21;;;;;;;;;;;18.30;99.90;;;;;;5145317;27;19942;-45
2023/08/18 07:30:46;;;;;;;;;;;18.30;99.90;;;;;;5118159;27;19943;-48
2023/08/18 07:33:12;;;;;;;;;;;18.30;99.90;;;;;;5116213;28;19907;-43
2023/08/18 07:35:38;;;;;;;;;;;18.40;99.90;;;;;;5128842;27;20333;-43
2023/08/18 07:38:03;;;;;;;;;;;18.40;99.90;;;;;;5151882;27;19915;-43
2023/08/18 07:40:29;;;;;;;;;;;18.40;99.90;;;;;;5157312;27;19907;-41
2023/08/18 07:42:54;;;;;;;;;;;18.40;99.90;;;;;;5156038;27;19988;-47
2023/08/18 07:45:20;;;;;;;;;;;18.50;99.90;;;;;;5116039;27;19920;-42
2023/08/18 07:47:46;;;;;;;;;;;18.40;99.90;;;;;;5115565;28;20000;-43
2023/08/18 07:50:13;;;;;;;;;;;18.50;99.90;;;;;;5127802;27;20382;-44
2023/08/18 07:52:39;;;;;;;;;;;18.50;99.90;;;;;;5130049;27;20370;-42
2023/08/18 07:55:05;;;;;;;;;;;18.50;99.90;;;;;;5128275;27;19916;-42
2023/08/18 07:57:31;;;;;;;;;;;18.50;99.90;;;;;;5117011;27;19981;-46
2023/08/18 07:59:56;;;;;;;;;;;18.50;99.90;;;;;;5116403;27;19916;-43
2023/08/18 08:02:22;;;;;;;;;;;18.50;99.90;;;;;;5119927;27;19984;-43
2023/08/18 08:04:48;;;;;;;;;;;18.60;99.90;;;;;;5129894;27;19962;-41
2023/08/18 08:07:13;;;;;;;;;;;18.60;99.90;;;;;;5116170;28;19959;-42
2023/08/18 08:09:39;;;;;;;;;;;18.60;99.90;;;;;;5126286;27;19911;-42
2023/08/18 08:12:05;;;;;;;;;;;18.70;99.90;;;;;;5121531;27;20010;-42
2023/08/18 08:14:30;;;;;;;;;;;18.70;99.90;;;;;;5131139;27;19937;-43
2023/08/18 08:16:56;;;;;;;;;;;18.70;99.90;;;;;;5126336;27;20453;-42
2023/08/18 08:19:21;;;;;;;;;;;18.80;99.90;;;;;;5143531;27;20369;-42
2023/08/18 08:21:47;;;;;;;;;;;18.80;99.90;;;;;;5157110;27;19907;-46
2023/08/18 08:24:13;;;;;;;;;;;18.90;99.90;;;;;;5156916;27;19914;-43
2023/08/18 08:26:39;;;;;;;;;;;19.00;99.90;;;;;;5139655;27;19912;-44
2023/08/18 08:29:05;;;;;;;;;;;19.10;99.90;;;;;;5134181;27;19915;-44
2023/08/18 08:31:31;;;;;;;;;;;19.20;99.90;;;;;;5156800;27;19918;-43
2023/08/18 08:33:57;;;;;;;;;;;19.30;99.90;;;;;;5156573;27;19944;-43
2023/08/18 08:36:23;;;;;;;;;;;19.40;99.90;;;;;;5156729;27;20001;-45
2023/08/18 08:38:48;;;;;;;;;;;19.50;99.90;;;;;;5156860;27;19949;-44
2023/08/18 08:41:14;;;;;;;;;;;19.60;99.90;;;;;;5156790;27;20102;-43
2023/08/18 08:43:40;;;;;;;;;;;19.70;99.90;;;;;;5155899;27;19907;-44
2023/08/18 08:46:06;;;;;;;;;;;19.80;99.90;;;;;;5136115;27;20358;-46
2023/08/18 08:48:36;;;;;;;;;;;19.80;99.90;;;;;;5135395;27;19907;-44
2023/08/18 08:51:03;;;;;;;;;;;20.00;99.90;;;;;;5135452;27;19925;-43
2023/08/18 08:53:32;;;;;;;;;;;20.10;99.90;;;;;;5135707;27;19914;-43
2023/08/18 08:56:00;;;;;;;;;;;20.20;99.90;;;;;;5135350;27;19973;-43
2023/08/18 08:58:29;;;;;;;;;;;20.30;99.90;;;;;;5135615;27;19912;-43
2023/08/18 09:00:55;;;;;;;;;;;20.30;99.90;;;;;;5135551;27;20006;-42
2023/08/18 09:03:21;;;;;;;;;;;20.30;99.90;;;;;;5138809;27;19998;-45
2023/08/18 09:05:47;;;;;;;;;;;20.30;99.90;;;;;;5134547;27;19908;-46
2023/08/18 09:08:12;;;;;;;;;;;20.30;99.90;;;;;;5122797;27;19914;-43
2023/08/18 09:10:39;;;;;;;;;;;20.40;99.90;;;;;;5127762;27;19911;-44
2023/08/18 09:13:04;;;;;;;;;;;20.50;99.90;;;;;;5133764;27;20350;-42
2023/08/18 09:15:29;;;;;;;;;;;20.60;99.90;;;;;;5133877;27;19960;-44
2023/08/18 09:17:56;;;;;;;;;;;20.70;99.90;;;;;;5129224;27;19920;-43
2023/08/18 09:20:22;;;;;;;;;;;20.80;99.90;;;;;;5124583;27;20344;-42
2023/08/18 09:22:47;;;;;;;;;;;20.90;99.90;;;;;;5139942;27;20010;-42
2023/08/18 09:25:13;;;;;;;;;;;21.00;99.90;;;;;;5113901;28;19916;-43
2023/08/18 09:27:39;;;;;;;;;;;20.90;99.90;;;;;;5133154;27;19951;-46
2023/08/18 09:30:04;;;;;;;;;;;21.00;99.90;;;;;;5132020;27;19950;-45
2023/08/18 09:32:30;;;;;;;;;;;21.00;99.90;;;;;;5133441;27;19961;-43
2023/08/18 09:34:56;;;;;;;;;;;21.00;99.90;;;;;;5114814;27;19956;-43
2023/08/18 09:37:28;;;;;;;;;;;20.90;99.90;;;;;;5131633;27;19971;-43
2023/08/18 09:39:54;;;;;;;;;;;21.00;99.90;;;;;;5124652;27;19908;-44
2023/08/18 09:42:19;;;;;;;;;;;21.00;99.90;;;;;;5134034;27;19918;-41
2023/08/18 09:44:44;;;;;;;;;;;21.00;99.90;;;;;;5141511;27;19919;-43
2023/08/18 09:47:11;;;;;;;;;;;21.10;99.90;;;;;;5133294;27;20299;-43
2023/08/18 09:49:39;;;;;;;;;;;21.20;99.90;;;;;;5133786;27;19915;-42
2023/08/18 09:52:05;;;;;;;;;;;21.10;99.90;;;;;;5125426;27;19912;-43
2023/08/18 09:54:35;;;;;;;;;;;21.10;99.90;;;;;;5121063;27;19946;-44
2023/08/18 09:57:05;;;;;;;;;;;21.10;99.90;;;;;;5120233;27;20011;-42
2023/08/18 09:59:47;;;;;;;;;;;21.10;99.90;;;;;;5119098;27;19908;-42
2023/08/18 10:02:14;;;;;;;;;;;21.20;99.90;;;;;;5117056;27;19912;-42
2023/08/18 10:04:40;;;;;;;;;;;21.20;99.90;;;;;;5120431;27;19915;-45
2023/08/18 10:07:06;;;;;;;;;;;21.30;99.90;;;;;;5151250;27;19918;-43
2023/08/18 10:09:33;;;;;;;;;;;21.20;99.90;;;;;;5154243;27;20293;-44
2023/08/18 10:12:00;;;;;;;;;;;21.30;99.90;;;;;;5154722;27;19930;-43
2023/08/18 10:14:26;;;;;;;;;;;21.30;99.90;;;;;;5154591;27;19994;-44
2023/08/18 10:16:52;;;;;;;;;;;21.40;99.90;;;;;;5154564;27;19998;-44
2023/08/18 10:19:38;;;;;;;;;;;21.40;99.90;;;;;;5154518;27;19907;-42
2023/08/18 10:22:03;;;;;;;;;;;21.40;99.90;;;;;;5154270;27;19933;-44
2023/08/18 10:24:29;;;;;;;;;;;21.50;99.90;;;;;;5154371;27;19908;-44
2023/08/18 10:26:54;;;;;;;;;;;21.50;99.90;;;;;;5154552;27;19917;-43
2023/08/18 10:29:20;;;;;;;;;;;21.60;99.90;;;;;;5154139;27;19907;-43
2023/08/18 10:31:47;;;;;;;;;;;21.60;99.90;;;;;;5137531;27;19963;-42
2023/08/18 10:34:19;;;;;;;;;;;21.60;99.90;;;;;;5113038;28;20286;-42
2023/08/18 10:36:45;;;;;;;;;;;21.60;99.90;;;;;;5113179;28;19975;-46
2023/08/18 10:39:24;;;;;;;;;;;21.60;99.90;;;;;;5113109;28;20366;-43
2023/08/18 10:42:07;;;;;;;;;;;21.70;99.90;;;;;;5113128;28;19908;-42
2023/08/18 10:44:33;;;;;;;;;;;21.70;99.90;;;;;;5112725;28;19919;-43
2023/08/18 10:47:00;;;;;;;;;;;21.90;99.90;;;;;;5113002;28;19915;-43
2023/08/18 10:49:25;;;;;;;;;;;22.00;99.90;;;;;;5114957;28;19907;-44
2023/08/18 10:51:53;;;;;;;;;;;22.10;99.90;;;;;;5133574;27;20301;-43
2023/08/18 10:54:18;;;;;;;;;;;22.20;99.90;;;;;;5137577;27;19907;-43
2023/08/18 10:56:44;;;;;;;;;;;22.30;99.90;;;;;;5137477;27;19922;-43
2023/08/18 10:59:09;;;;;;;;;;;22.40;99.90;;;;;;5137523;27;19914;-44
2023/08/18 11:01:35;;;;;;;;;;;22.60;99.90;;;;;;5137313;27;19915;-43
2023/08/18 11:04:03;;;;;;;;;;;22.70;99.90;;;;;;5137588;27;19911;-46
2023/08/18 11:06:29;;;;;;;;;;;22.80;99.90;;;;;;5137309;27;20390;-43
2023/08/18 11:08:55;;;;;;;;;;;23.00;99.90;;;;;;5137486;27;19914;-44
2023/08/18 11:11:20;;;;;;;;;;;23.10;99.90;;;;;;5137227;27;20377;-44
2023/08/18 11:13:46;;;;;;;;;;;23.30;99.90;;;;;;5137269;27;20365;-44
2023/08/18 11:16:12;;;;;;;;;;;23.70;99.90;;;;;;5143743;27;19926;-44
2023/08/18 11:18:40;;;;;;;;;;;23.90;99.90;;;;;;5157753;27;19936;-46
2023/08/18 11:21:06;;;;;;;;;;;23.90;99.90;;;;;;5158058;27;19911;-43
2023/08/18 11:23:31;;;;;;;;;;;23.90;99.90;;;;;;5157653;27;19959;-43
2023/08/18 11:25:57;;;;;;;;;;;23.90;99.90;;;;;;5157379;27;20380;-46
2023/08/18 11:28:22;;;;;;;;;;;23.80;99.90;;;;;;5157588;27;19915;-42
2023/08/18 11:30:48;;;;;;;;;;;23.90;99.90;;;;;;5157504;27;20015;-45
2023/08/18 11:33:13;;;;;;;;;;;23.90;99.90;;;;;;5157492;27;19907;-43
2023/08/18 11:35:39;;;;;;;;;;;23.90;99.90;;;;;;5140691;27;19926;-46
2023/08/18 11:38:04;;;;;;;;;;;23.90;99.90;;;;;;5136794;27;20054;-44
2023/08/18 11:40:34;;;;;;;;;;;23.80;99.90;;;;;;5136658;27;19914;-43
2023/08/18 11:43:00;;;;;;;;;;;23.80;99.90;;;;;;5144025;27;19937;-44
2023/08/18 11:45:26;;;;;;;;;;;23.80;99.90;;;;;;5157009;27;19927;-44
2023/08/18 11:47:59;;;;;;;;;;;23.70;99.90;;;;;;5157373;27;19915;-45
2023/08/18 11:50:31;;;;;;;;;;;23.60;99.90;;;;;;5157136;27;19907;-42
2023/08/18 11:52:56;;;;;;;;;;;23.50;99.90;;;;;;5157203;27;19914;-44
2023/08/18 11:55:42;;;;;;;;;;;23.50;99.90;;;;;;5157109;27;19911;-43
2023/08/18 11:58:14;;;;;;;;;;;23.30;99.90;;;;;;5157149;27;19922;-45
2023/08/18 12:00:40;;;;;;;;;;;23.30;99.90;;;;;;5139479;27;19935;-44
2023/08/18 12:03:26;;;;;;;;;;;23.20;99.90;;;;;;5136316;27;19954;-44
2023/08/18 12:05:52;;;;;;;;;;;23.20;99.90;;;;;;5135659;27;20362;-44
2023/08/18 12:08:18;;;;;;;;;;;23.20;99.90;;;;;;5136144;27;19918;-44
2023/08/18 12:10:47;;;;;;;;;;;23.20;99.90;;;;;;5151666;27;19911;-45
2023/08/18 12:13:13;;;;;;;;;;;23.30;99.90;;;;;;5156825;27;19917;-45
2023/08/18 12:15:39;;;;;;;;;;;23.50;99.90;;;;;;5156637;27;19911;-43
2023/08/18 12:18:05;;;;;;;;;;;23.70;99.90;;;;;;5156804;27;19918;-44
2023/08/18 12:20:31;;;;;;;;;;;24.00;99.90;;;;;;5156661;27;19942;-44
2023/08/18 12:22:56;;;;;;;;;;;24.10;99.90;;;;;;5156797;27;19911;-43
2023/08/18 12:25:25;;;;;;;;;;;24.10;99.90;;;;;;5156554;27;19959;-44
2023/08/18 12:27:51;;;;;;;;;;;24.10;99.90;;;;;;5141126;27;19915;-43
2023/08/18 12:30:17;;;;;;;;;;;24.30;99.90;;;;;;5135698;27;19953;-44
2023/08/18 12:32:47;;;;;;;;;;;24.50;99.90;;;;;;5135699;27;20176;-44
2023/08/18 12:35:12;;;;;;;;;;;24.80;99.90;;;;;;5135654;27;19907;-44
2023/08/18 12:37:38;;;;;;;;;;;25.00;99.90;;;;;;5135456;27;19941;-44
2023/08/18 12:40:07;;;;;;;;;;;25.00;99.90;;;;;;5135443;27;19914;-44
2023/08/18 12:42:33;;;;;;;;;;;25.00;99.90;;;;;;5135423;27;19915;-44
2023/08/18 12:44:58;;;;;;;;;;;25.20;99.90;;;;;;5135170;27;19919;-44
2023/08/18 12:47:24;;;;;;;;;;;25.30;99.90;;;;;;5135327;27;19908;-43
2023/08/18 12:49:50;;;;;;;;;;;25.30;99.90;;;;;;5135383;27;19914;-43
2023/08/18 12:52:15;;;;;;;;;;;25.20;99.90;;;;;;5135339;27;19943;-42
2023/08/18 12:54:41;;;;;;;;;;;25.10;99.90;;;;;;5135161;27;20278;-47
2023/08/18 12:57:07;;;;;;;;;;;25.10;99.90;;;;;;5148903;27;19942;-43
2023/08/18 12:59:32;;;;;;;;;;;25.00;99.90;;;;;;5155845;27;19911;-43
2023/08/18 13:01:58;;;;;;;;;;;24.90;99.90;;;;;;5155802;27;19915;-44
2023/08/18 13:04:24;;;;;;;;;;;24.80;99.90;;;;;;5155684;27;19907;-44
2023/08/18 13:06:49;;;;;;;;;;;24.80;99.90;;;;;;5155227;27;19918;-43
2023/08/18 13:09:15;;;;;;;;;;;24.80;99.90;;;;;;5155658;27;19918;-46
2023/08/18 13:11:40;;;;;;;;;;;25.20;99.90;;;;;;5155146;27;19915;-44
2023/08/18 13:14:06;;;;;;;;;;;25.70;99.90;;;;;;5155633;27;20258;-44
2023/08/18 13:16:32;;;;;;;;;;;26.40;99.90;;;;;;5155235;27;19915;-45
2023/08/18 13:18:58;;;;;;;;;;;27.10;99.90;;;;;;5155329;27;20266;-44
2023/08/18 13:21:24;;;;;;;;;;;27.70;99.90;;;;;;5155130;27;19913;-43
2023/08/18 13:23:50;;;;;;;;;;;28.20;99.90;;;;;;5155431;27;19952;-43
2023/08/18 13:26:15;;;;;;;;;;;28.30;99.90;;;;;;5148654;27;19915;-45
2023/08/18 13:28:41;;;;;;;;;;;28.30;99.90;;;;;;5134463;27;19912;-48
2023/08/18 13:31:07;;;;;;;;;;;28.20;99.90;;;;;;5138577;27;19911;-44
2023/08/18 13:33:32;;;;;;;;;;;28.20;99.90;;;;;;5154925;27;19963;-43
2023/08/18 13:35:57;;;;;;;;;;;28.10;99.90;;;;;;5154519;27;19922;-45
2023/08/18 13:38:23;;;;;;;;;;;28.00;99.90;;;;;;5155070;27;19907;-46
2023/08/18 13:40:49;;;;;;;;;;;27.90;99.90;;;;;;5155179;27;19960;-43
2023/08/18 13:43:15;;;;;;;;;;;27.70;99.90;;;;;;5155225;27;19907;-43
2023/08/18 13:45:40;;;;;;;;;;;27.50;99.90;;;;;;5154683;27;19941;-43
2023/08/18 13:48:06;;;;;;;;;;;27.40;99.90;;;;;;5154961;27;19908;-44
2023/08/18 13:50:31;;;;;;;;;;;27.20;99.90;;;;;;5154919;27;19907;-42
2023/08/18 13:52:57;;;;;;;;;;;27.10;99.90;;;;;;5136410;27;19911;-43
2023/08/18 13:55:23;;;;;;;;;;;27.10;99.90;;;;;;5154933;27;19907;-42
2023/08/18 13:57:49;;;;;;;;;;;27.50;99.90;;;;;;5152801;27;19919;-43
2023/08/18 14:00:14;;;;;;;;;;;27.60;99.90;;;;;;5154868;27;19938;-43
2023/08/18 14:02:40;;;;;;;;;;;27.60;99.90;;;;;;5154582;27;19946;-46
2023/08/18 14:05:06;;;;;;;;;;;27.70;99.90;;;;;;5154276;27;19915;-43
2023/08/18 14:07:31;;;;;;;;;;;27.60;99.90;;;;;;5154563;27;20005;-47
2023/08/18 14:09:57;;;;;;;;;;;27.50;99.90;;;;;;5154773;27;19955;-42